.
WxDataArchive / Data Records for 2012-04-02
2012-04-01 April 2012 2012-04-03

Data Records for Monday, 02 April 2012

Time	Temp	Chill	HIndex	Humid	Dewpt	 Wind 	HiWind	WindDir	Rain 	Barom 
-----	----	-----	------	-----	-----	------	------	-------	-----	----- 
00:00	52.6	52.6	52.6	78	45.9	1	3	90	0.00	29.777 
00:05	52.3	52.3	52.3	78	45.6	1	5	90	0.00	29.777 
00:10	52.2	52.2	52.2	77	45.2	2	5	90	0.00	29.777 
00:15	52.0	52.0	52.0	78	45.4	1	4	90	0.00	29.782 
00:20	51.7	51.7	51.7	78	45.1	1	3	90	0.00	29.782 
00:25	51.4	51.4	51.4	78	44.8	1	5	90	0.00	29.782 
00:30	51.1	51.1	51.1	78	44.5	2	6	112	0.00	29.787 
00:35	51.0	51.0	51.0	78	44.4	1	4	90	0.00	29.787 
00:40	50.7	50.7	50.7	78	44.1	1	5	112	0.00	29.787 
00:45	50.5	50.5	50.5	78	43.9	1	4	112	0.00	29.795 
00:50	50.4	50.4	50.4	78	43.8	2	5	112	0.00	29.795 
00:55	50.2	50.2	50.2	79	43.9	2	6	112	0.00	29.795 
01:00	50.1	50.1	50.1	79	43.8	1	6	135	0.00	29.790 
01:05	50.1	50.1	50.1	79	43.8	3	11	112	0.00	29.790 
01:10	50.1	50.1	50.1	79	43.8	3	9	112	0.00	29.790 
01:15	49.9	49.9	49.9	79	43.6	2	6	68	0.00	29.788 
01:20	49.8	49.8	49.8	79	43.6	3	6	90	0.00	29.788 
01:25	49.6	49.6	49.6	80	43.7	1	4	90	0.00	29.788 
01:30	49.4	49.4	49.4	80	43.5	1	4	90	0.00	29.800 
01:35	49.2	49.2	49.2	81	43.6	2	5	90	0.00	29.800 
01:40	49.1	49.1	49.1	81	43.5	0	3	112	0.00	29.800 
01:45	48.9	48.9	48.9	81	43.3	0	2	112	0.00	29.802 
01:50	48.8	48.8	48.8	82	43.6	0	1	112	0.00	29.802 
01:55	48.6	48.6	48.6	83	43.7	1	4	112	0.00	29.802 
02:00	48.8	48.8	48.8	83	43.9	2	5	112	0.00	29.818 
02:05	48.8	48.8	48.8	82	43.6	3	9	90	0.00	29.818 
02:10	48.8	48.8	48.8	81	43.2	3	9	90	0.00	29.818 
02:15	48.6	48.6	48.6	80	42.7	3	11	112	0.00	29.820 
02:20	48.5	48.5	48.5	81	42.9	3	7	68	0.00	29.820 
02:25	48.2	48.2	48.2	81	42.6	3	10	90	0.00	29.820 
02:30	47.9	47.9	47.9	81	42.4	3	6	90	0.00	29.812 
02:35	47.6	47.6	47.6	81	42.1	2	5	112	0.00	29.812 
02:40	47.3	45.8	47.3	81	41.8	4	9	112	0.00	29.812 
02:45	47.0	47.0	47.0	81	41.5	3	9	112	0.00	29.808 
02:50	47.0	47.0	47.0	81	41.5	3	8	112	0.00	29.808 
02:55	47.0	47.0	47.0	80	41.2	3	7	112	0.00	29.808 
03:00	47.0	45.4	47.0	80	41.2	4	11	112	0.00	29.832 
03:05	46.8	45.2	46.8	80	41.0	4	10	90	0.00	29.832 
03:10	46.8	45.2	46.8	81	41.3	4	9	112	0.00	29.832 
03:15	46.8	45.2	46.8	81	41.3	4	8	90	0.00	29.825 
03:20	46.7	45.1	46.7	81	41.2	4	11	112	0.00	29.825 
03:25	46.5	44.8	46.5	81	41.0	4	10	112	0.00	29.825 
03:30	46.4	46.4	46.4	81	40.9	3	9	90	0.00	29.819 
03:35	46.2	44.5	46.2	82	41.0	4	10	112	0.00	29.819 
03:40	46.1	46.1	46.1	82	40.9	3	7	90	0.00	29.819 
03:45	46.0	46.0	46.0	82	40.8	3	6	90	0.00	29.825 
03:50	46.0	46.0	46.0	82	40.8	2	6	90	0.00	29.825 
03:55	45.8	45.8	45.8	83	40.9	3	7	112	0.00	29.825 
04:00	45.7	45.7	45.7	83	40.8	3	7	90	0.00	29.830 
04:05	45.5	45.5	45.5	83	40.6	3	6	90	0.00	29.830 
04:10	45.2	45.2	45.2	83	40.3	3	5	90	0.00	29.830 
04:15	45.1	45.1	45.1	83	40.3	3	7	90	0.00	29.839 
04:20	44.9	44.9	44.9	84	40.4	3	7	90	0.00	29.839 
04:25	44.8	44.8	44.8	84	40.3	3	6	90	0.00	29.839 
04:30	44.6	44.6	44.6	83	39.8	3	9	90	0.00	29.854 
04:35	44.5	44.5	44.5	83	39.7	2	9	90	0.00	29.854 
04:40	44.5	44.5	44.5	83	39.7	3	6	112	0.00	29.854 
04:45	44.5	44.5	44.5	83	39.7	3	7	90	0.00	29.845 
04:50	44.3	44.3	44.3	83	39.5	3	9	112	0.00	29.845 
04:55	44.3	44.3	44.3	83	39.5	2	10	68	0.00	29.845 
05:00	44.3	44.3	44.3	83	39.5	3	10	90	0.00	29.855 
05:05	44.2	44.2	44.2	83	39.4	2	5	90	0.00	29.855 
05:10	44.1	44.1	44.1	84	39.6	2	5	90	0.00	29.855 
05:15	44.1	44.1	44.1	84	39.6	2	4	90	0.00	29.861 
05:20	43.9	43.9	43.9	84	39.4	2	6	90	0.00	29.861 
05:25	43.9	43.9	43.9	84	39.4	1	4	90	0.00	29.861 
05:30	43.8	43.8	43.8	84	39.3	1	5	90	0.00	29.871 
05:35	43.6	43.6	43.6	83	38.8	2	5	90	0.00	29.871 
05:40	43.3	43.3	43.3	83	38.5	1	4	112	0.00	29.871 
05:45	43.2	43.2	43.2	83	38.4	2	5	90	0.00	29.886 
05:50	42.8	42.8	42.8	79	36.7	3	12	112	0.00	29.886 
05:55	42.6	40.3	42.6	77	35.9	4	8	90	0.00	29.886 
06:00	42.3	42.3	42.3	77	35.6	3	10	112	0.00	29.887 
06:05	42.2	42.2	42.2	78	35.8	2	5	90	0.00	29.887 
06:10	42.1	42.1	42.1	79	36.1	2	7	90	0.00	29.887 
06:15	41.9	41.9	41.9	79	35.9	2	5	90	0.00	29.889 
06:20	41.8	41.8	41.8	78	35.5	2	9	90	0.00	29.889 
06:25	41.6	41.6	41.6	79	35.6	2	6	68	0.00	29.889 
06:30	41.6	41.6	41.6	79	35.6	2	7	90	0.00	29.901 
06:35	41.5	41.5	41.5	80	35.8	2	6	90	0.00	29.901 
06:40	41.3	41.3	41.3	80	35.6	1	4	90	0.00	29.901 
06:45	41.3	41.3	41.3	80	35.6	1	5	112	0.00	29.908 
06:50	41.2	41.2	41.2	80	35.5	2	5	112	0.00	29.908 
06:55	41.1	41.1	41.1	80	35.4	1	4	112	0.00	29.908 
07:00	40.9	40.9	40.9	81	35.5	1	5	112	0.00	29.922 
07:05	40.8	40.8	40.8	82	35.7	1	2	90	0.00	29.922 
07:10	40.6	40.6	40.6	82	35.5	1	3	112	0.00	29.922 
07:15	40.5	40.5	40.5	82	35.4	2	4	112	0.00	29.924 
07:20	40.3	40.3	40.3	82	35.2	1	3	112	0.00	29.924 
07:25	40.3	40.3	40.3	82	35.2	1	4	112	0.00	29.924 
07:30	40.2	40.2	40.2	82	35.2	2	6	112	0.00	29.926 
07:35	40.2	40.2	40.2	82	35.2	2	6	90	0.00	29.926 
07:40	40.2	40.2	40.2	82	35.2	2	6	90	0.00	29.926 
07:45	40.1	40.1	40.1	83	35.4	1	9	112	0.00	29.935 
07:50	40.1	40.1	40.1	83	35.4	2	5	112	0.00	29.935 
07:55	40.1	40.1	40.1	83	35.4	1	7	90	0.00	29.935 
08:00	39.9	39.9	39.9	83	35.2	2	7	90	0.00	29.940 
08:05	39.9	39.9	39.9	83	35.2	2	6	112	0.00	29.940 
08:10	40.1	40.1	40.1	83	35.4	1	4	112	0.00	29.940 
08:15	40.1	40.1	40.1	83	35.4	3	9	112	0.00	29.953 
08:20	40.2	40.2	40.2	83	35.5	2	6	112	0.00	29.953 
08:25	40.5	40.5	40.5	82	35.4	2	6	112	0.00	29.953 
08:30	40.5	40.5	40.5	81	35.1	2	5	90	0.00	29.958 
08:35	40.3	40.3	40.3	82	35.2	3	7	112	0.00	29.958 
08:40	40.2	40.2	40.2	82	35.2	3	5	90	0.00	29.958 
08:45	40.3	40.3	40.3	82	35.2	2	6	90	0.00	29.960 
08:50	40.5	40.5	40.5	81	35.1	2	6	90	0.00	29.960 
08:55	40.8	40.8	40.8	81	35.4	3	7	90	0.00	29.960 
09:00	40.9	40.9	40.9	81	35.5	2	5	112	0.00	29.968 
09:05	41.1	41.1	41.1	81	35.7	3	9	90	0.00	29.968 
09:10	41.1	41.1	41.1	81	35.7	3	7	90	0.00	29.968 
09:15	41.2	41.2	41.2	81	35.8	3	9	112	0.00	29.968 
09:20	41.5	41.5	41.5	81	36.1	3	7	112	0.00	29.968 
09:25	41.3	38.0	41.3	80	35.6	5	11	90	0.00	29.968 
09:30	41.6	39.2	41.6	80	35.9	4	10	90	0.00	29.975 
09:35	41.6	39.2	41.6	80	35.9	4	9	112	0.00	29.975 
09:40	41.8	39.4	41.8	80	36.1	4	11	90	0.00	29.975 
09:45	41.9	41.9	41.9	80	36.2	3	6	90	0.00	29.975 
09:50	41.9	39.5	41.9	80	36.2	4	9	90	0.00	29.975 
09:55	42.1	39.7	42.1	80	36.4	4	10	112	0.00	29.975 
10:00	42.3	42.3	42.3	80	36.6	3	6	112	0.00	29.981 
10:05	43.2	43.2	43.2	77	36.5	3	10	112	0.00	29.981 
10:10	43.8	41.7	43.8	75	36.4	4	10	112	0.00	29.981 
10:15	44.5	44.5	44.5	75	37.1	3	10	112	0.00	29.983 
10:20	45.1	42.5	45.1	71	36.3	5	11	90	0.00	29.983 
10:25	45.1	41.8	45.1	70	35.9	6	13	90	0.00	29.983 
10:30	44.6	41.2	44.6	72	36.1	6	11	112	0.00	29.991 
10:35	44.9	42.2	44.9	70	35.7	5	12	112	0.00	29.991 
10:40	44.6	41.9	44.6	72	36.1	5	13	112	0.00	29.991 
10:45	44.5	42.5	44.5	73	36.4	4	8	90	0.00	29.995 
10:50	44.5	44.5	44.5	73	36.4	3	10	112	0.00	29.995 
10:55	44.8	42.1	44.8	72	36.3	5	12	90	0.00	29.995 
11:00	44.8	42.9	44.8	73	36.7	4	9	112	0.00	29.998 
11:05	44.6	41.9	44.6	73	36.5	5	12	90	0.00	29.998 
11:10	44.9	41.6	44.9	70	35.7	6	14	112	0.00	29.998 
11:15	45.1	43.2	45.1	71	36.3	4	10	90	0.00	30.003 
11:20	45.4	42.2	45.4	70	36.2	6	12	112	0.00	30.003 
11:25	45.8	42.1	45.8	68	35.8	7	12	112	0.00	30.003 
11:30	46.7	46.7	46.7	69	37.1	3	9	135	0.00	30.007 
11:35	46.7	44.3	46.7	68	36.7	5	11	90	0.00	30.007 
11:40	46.5	44.8	46.5	69	36.9	4	12	90	0.00	30.007 
11:45	47.0	45.4	47.0	68	37.0	4	10	112	0.00	30.008 
11:50	47.3	45.0	47.3	67	36.9	5	11	90	0.00	30.008 
11:55	47.0	44.1	47.0	67	36.6	6	13	112	0.00	30.008 
12:00	47.1	44.2	47.1	66	36.3	6	13	112	0.00	30.016 
12:05	47.3	44.5	47.3	66	36.5	6	15	112	0.00	30.016 
12:10	47.6	44.8	47.6	66	36.8	6	15	112	0.00	30.016 
12:15	47.9	45.8	47.9	65	36.7	5	9	90	0.00	30.015 
12:20	48.5	46.5	48.5	64	36.9	5	12	112	0.00	30.015 
12:25	48.9	47.6	48.9	64	37.3	4	12	90	0.00	30.015 
12:30	49.2	47.3	49.2	63	37.1	5	10	112	0.00	30.018 
12:35	49.4	47.5	49.4	62	36.9	5	11	90	0.00	30.018 
12:40	49.8	48.6	49.8	62	37.3	4	9	90	0.00	30.018 
12:45	49.6	47.7	49.6	62	37.1	5	12	112	0.00	30.014 
12:50	50.1	50.1	50.1	64	38.4	4	10	112	0.00	30.014 
12:55	50.8	50.8	50.8	60	37.4	4	11	90	0.00	30.014 
13:00	51.1	51.1	51.1	60	37.7	4	10	112	0.00	30.016 
13:05	51.0	51.0	51.0	62	38.4	5	10	90	0.00	30.016 
13:10	51.3	51.3	51.3	60	37.9	3	7	112	0.00	30.016 
13:15	51.7	51.7	51.7	62	39.1	4	10	112	0.00	30.013 
13:20	51.9	51.9	51.9	61	38.9	4	9	90	0.00	30.013 
13:25	52.0	52.0	52.0	61	39.0	4	11	90	0.00	30.013 
13:30	52.2	52.2	52.2	59	38.3	5	12	112	0.00	30.007 
13:35	51.9	51.9	51.9	60	38.5	5	13	112	0.00	30.007 
13:40	52.0	52.0	52.0	59	38.1	5	12	90	0.00	30.007 
13:45	52.3	52.3	52.3	58	38.0	4	12	90	0.00	29.997 
13:50	52.3	52.3	52.3	58	38.0	5	10	112	0.00	29.997 
13:55	52.5	52.5	52.5	60	39.0	4	11	112	0.00	29.997 
14:00	52.5	52.5	52.5	58	38.2	5	11	90	0.00	29.997 
14:05	53.1	53.1	53.1	58	38.7	3	7	135	0.00	29.997 
14:10	53.8	53.8	53.8	58	39.4	3	7	112	0.00	29.997 
14:15	54.2	54.2	54.2	58	39.7	3	6	112	0.00	30.004 
14:20	54.4	54.4	54.4	54	38.1	3	11	112	0.00	30.004 
14:25	54.4	54.4	54.4	53	37.6	5	13	90	0.00	30.004 
14:30	54.5	54.5	54.5	54	38.2	4	6	90	0.00	29.999 
14:35	54.5	54.5	54.5	54	38.2	4	10	112	0.00	29.999 
14:40	54.8	54.8	54.8	54	38.5	4	7	112	0.00	29.999 
14:45	55.1	55.1	55.1	54	38.8	4	10	112	0.00	29.991 
14:50	55.6	55.6	55.6	53	38.7	3	5	90	0.00	29.991 
14:55	55.9	55.9	55.9	52	38.5	4	10	112	0.00	29.991 
15:00	56.2	56.2	56.2	52	38.8	4	10	90	0.00	29.985 
15:05	56.3	56.3	56.3	52	38.9	4	10	90	0.00	29.985 
15:10	56.3	56.3	56.3	50	37.9	4	7	112	0.00	29.985 
15:15	56.5	56.5	56.5	50	38.1	4	7	90	0.00	29.974 
15:20	56.7	56.7	56.7	51	38.8	3	9	90	0.00	29.974 
15:25	57.0	57.0	57.0	49	38.0	2	6	90	0.00	29.974 
15:30	57.5	57.5	57.5	54	41.0	3	7	90	0.00	29.974 
15:35	57.6	57.6	57.6	48	38.1	3	7	90	0.00	29.974 
15:40	57.8	57.8	57.8	48	38.2	3	9	112	0.00	29.974 
15:45	57.6	57.6	57.6	50	39.1	4	7	112	0.00	29.965 
15:50	57.8	57.8	57.8	50	39.3	3	10	90	0.00	29.965 
15:55	58.1	58.1	58.1	49	39.0	4	14	90	0.00	29.965 
16:00	58.1	58.1	58.1	49	39.0	4	11	90	0.00	29.956 
16:05	58.3	58.3	58.3	50	39.7	3	7	90	0.00	29.956 
16:10	58.6	58.6	58.6	46	37.9	4	11	112	0.00	29.956 
16:15	58.4	58.4	58.4	49	39.3	4	11	112	0.00	29.962 
16:20	58.4	58.4	58.4	48	38.8	4	10	90	0.00	29.962 
16:25	58.4	58.4	58.4	47	38.2	2	9	112	0.00	29.962 
16:30	58.6	58.6	58.6	46	37.9	3	8	112	0.00	29.958 
16:35	58.6	58.6	58.6	48	39.0	3	7	90	0.00	29.958 
16:40	58.6	58.6	58.6	44	36.8	3	7	68	0.00	29.958 
16:45	58.4	58.4	58.4	46	37.7	4	10	112	0.00	29.964 
16:50	58.4	58.4	58.4	46	37.7	4	9	112	0.00	29.964 
16:55	58.3	58.3	58.3	46	37.6	5	10	112	0.00	29.964 
17:00	58.4	58.4	58.4	47	38.2	3	7	112	0.00	29.965 
17:05	58.7	58.7	58.7	46	38.0	4	9	90	0.00	29.965 
17:10	58.9	58.9	58.9	46	38.2	4	7	90	0.00	29.965 
17:15	58.9	58.9	58.9	44	37.0	4	7	112	0.00	29.962 
17:20	59.0	59.0	59.0	44	37.1	4	10	90	0.00	29.962 
17:25	59.2	59.2	59.2	45	37.9	3	9	112	0.00	29.962 
17:30	59.3	59.3	59.3	43	36.8	3	9	112	0.00	29.965 
17:35	59.2	59.2	59.2	45	37.9	3	10	90	0.00	29.965 
17:40	59.2	59.2	59.2	43	36.7	3	8	112	0.00	29.965 
17:45	59.2	59.2	59.2	45	37.9	3	9	112	0.00	29.960 
17:50	59.2	59.2	59.2	44	37.3	3	9	112	0.00	29.960 
17:55	59.0	59.0	59.0	42	35.9	5	11	112	0.00	29.960 
18:00	59.0	59.0	59.0	44	37.1	3	8	112	0.00	29.959 
18:05	59.0	59.0	59.0	43	36.5	4	11	90	0.00	29.959 
18:10	59.0	59.0	59.0	43	36.5	3	9	112	0.00	29.959 
18:15	59.0	59.0	59.0	43	36.5	2	4	112	0.00	29.959 
18:20	59.2	59.2	59.2	41	35.5	3	7	112	0.00	29.959 
18:25	59.0	59.0	59.0	40	34.7	3	9	112	0.00	29.959 
18:30	59.0	59.0	59.0	42	35.9	2	5	112	0.00	29.960 
18:35	58.9	58.9	58.9	42	35.9	3	7	112	0.00	29.960 
18:40	58.9	58.9	58.9	42	35.9	3	5	90	0.00	29.960 
18:45	58.7	58.7	58.7	41	35.1	3	6	90	0.00	29.960 
18:50	58.7	58.7	58.7	43	36.3	2	5	112	0.00	29.960 
18:55	58.7	58.7	58.7	42	35.7	3	6	90	0.00	29.960 
19:00	58.6	58.6	58.6	42	35.6	2	6	68	0.00	29.963 
19:05	58.4	58.4	58.4	43	36.0	3	6	90	0.00	29.963 
19:10	58.3	58.3	58.3	43	35.9	4	9	90	0.00	29.963 
19:15	58.1	58.1	58.1	43	35.7	3	6	90	0.00	29.961 
19:20	58.0	58.0	58.0	43	35.6	2	5	112	0.00	29.961 
19:25	57.8	57.8	57.8	43	35.5	3	7	112	0.00	29.961 
19:30	57.5	57.5	57.5	43	35.2	4	7	112	0.00	29.960 
19:35	57.2	57.2	57.2	45	36.1	2	5	112	0.00	29.960 
19:40	57.0	57.0	57.0	44	35.3	2	6	90	0.00	29.960 
19:45	56.7	56.7	56.7	46	36.2	3	8	90	0.00	29.956 
19:50	56.3	56.3	56.3	48	36.9	3	5	90	0.00	29.956 
19:55	55.9	55.9	55.9	49	37.0	2	6	68	0.00	29.956 
20:00	55.4	55.4	55.4	50	37.1	2	5	90	0.00	29.953 
20:05	55.1	55.1	55.1	50	36.8	3	6	112	0.00	29.953 
20:10	54.8	54.8	54.8	51	37.0	3	5	90	0.00	29.953 
20:15	54.4	54.4	54.4	51	36.7	3	7	112	0.00	29.954 
20:20	54.1	54.1	54.1	52	36.9	2	4	90	0.00	29.954 
20:25	53.6	53.6	53.6	52	36.4	2	6	90	0.00	29.954 
20:30	53.3	53.3	53.3	53	36.6	2	5	90	0.00	29.959 
20:35	52.9	52.9	52.9	54	36.7	2	6	90	0.00	29.959 
20:40	52.6	52.6	52.6	56	37.4	3	7	90	0.00	29.959 
20:45	52.2	52.2	52.2	58	37.9	2	6	90	0.00	29.966 
20:50	51.9	51.9	51.9	59	38.0	2	9	90	0.00	29.966 
20:55	51.4	51.4	51.4	59	37.6	3	7	112	0.00	29.966 
21:00	51.1	51.1	51.1	60	37.7	2	7	90	0.00	29.966 
21:05	50.7	50.7	50.7	61	37.7	2	5	112	0.00	29.966 
21:10	50.4	50.4	50.4	61	37.5	2	5	90	0.00	29.966 
21:15	50.1	50.1	50.1	61	37.2	2	5	112	0.00	29.971 
21:20	49.9	49.9	49.9	60	36.6	3	7	90	0.00	29.971 
21:25	49.6	49.6	49.6	60	36.3	3	6	112	0.00	29.971 
21:30	49.4	49.4	49.4	60	36.1	3	6	90	0.00	29.976 
21:35	49.2	49.2	49.2	61	36.3	2	8	112	0.00	29.976 
21:40	48.9	48.9	48.9	61	36.0	3	7	90	0.00	29.976 
21:45	48.6	48.6	48.6	61	35.8	2	5	90	0.00	29.983 
21:50	48.5	48.5	48.5	61	35.7	2	4	90	0.00	29.983 
21:55	48.3	48.3	48.3	62	35.9	1	4	90	0.00	29.983 
22:00	48.0	48.0	48.0	62	35.6	1	3	90	0.00	29.984 
22:05	47.7	47.7	47.7	63	35.7	1	3	90	0.00	29.984 
22:10	47.4	47.4	47.4	64	35.8	1	3	90	0.00	29.984 
22:15	47.1	47.1	47.1	64	35.6	1	3	90	0.00	29.982 
22:20	46.8	46.8	46.8	65	35.7	2	4	90	0.00	29.982 
22:25	46.7	46.7	46.7	65	35.6	2	6	90	0.00	29.982 
22:30	46.4	46.4	46.4	66	35.7	2	7	112	0.00	29.971 
22:35	46.2	46.2	46.2	67	35.9	1	5	112	0.00	29.971 
22:40	46.1	46.1	46.1	67	35.8	2	5	90	0.00	29.971 
22:45	46.0	46.0	46.0	67	35.7	3	7	90	0.00	29.983 
22:50	45.8	45.8	45.8	66	35.1	2	5	68	0.00	29.983 
22:55	45.7	45.7	45.7	66	35.0	2	6	90	0.00	29.983 
23:00	45.5	45.5	45.5	67	35.2	2	6	90	0.00	29.991 
23:05	45.4	45.4	45.4	66	34.7	2	4	68	0.00	29.991 
23:10	45.2	45.2	45.2	66	34.5	3	7	112	0.00	29.991 
23:15	45.1	45.1	45.1	66	34.4	2	4	90	0.00	29.989 
23:20	44.9	44.9	44.9	66	34.2	3	6	90	0.00	29.989 
23:25	44.8	44.8	44.8	66	34.1	2	4	90	0.00	29.989 
23:30	44.6	44.6	44.6	66	34.0	3	5	68	0.00	29.985 
23:35	44.3	44.3	44.3	67	34.0	3	5	90	0.00	29.985 
23:40	44.2	44.2	44.2	67	33.9	3	6	90	0.00	29.985 
23:45	43.9	43.9	43.9	67	33.7	3	6	112	0.00	29.983 
23:50	43.8	43.8	43.8	67	33.6	2	3	112	0.00	29.983 
23:55	43.6	43.6	43.6	67	33.4	2	5	112	0.00	29.983 

CoCoRaHS
IN-AL-39
A2 Web Hosting
Creative Commons License
GoDaddy
search engine by freefind advanced

loaded 2018-11-15 13:35:41 • last modified 2010-11-18 10:43:29
Privacy PolicyDisclaimer
• wx.awcolley.com is powered by PmWiki v.2002016 •
• all content (unless otherwise noted) © 2018 A W Colley